Terminal Aerodrome Forecast
Issued by NWS Cleveland, OH

Home | Current Version | Previous Version | Text Only | Print | Product List | Glossary On
Versions: 1 2 3 4 5 6 7 8 9 10 11 12 13 14 15 16 17 18 19 20 21
723
FTUS41 KCLE 111138
TAFYNG
TAF
KYNG 111138Z 1112/1212 30012G18KT 3SM -SHSN OVC025
      TEMPO 1112/1114 2SM -SHSN OVC015
     FM111600 29012G18KT P6SM OVC035
     FM112300 24005KT P6SM BKN035=

USA.gov is the U.S. government's official web portal to all federal, state and local government web resources and services.